createdAt,value
2022-09-24T00:00:46.997Z,1006.72
2022-09-24T00:01:47.042Z,1006.71
2022-09-24T00:02:46.991Z,1006.72
2022-09-24T00:03:46.969Z,1006.69
2022-09-24T00:04:46.998Z,1006.72
2022-09-24T00:05:46.937Z,1006.73
2022-09-24T00:06:46.928Z,1006.70
2022-09-24T00:07:46.937Z,1006.70
2022-09-24T00:08:46.914Z,1006.68
2022-09-24T00:09:46.919Z,1006.68
2022-09-24T00:10:46.958Z,1006.66
2022-09-24T00:11:46.918Z,1006.65
2022-09-24T00:12:46.874Z,1006.65
2022-09-24T00:13:46.848Z,1006.62
2022-09-24T00:14:46.837Z,1006.64
2022-09-24T00:15:46.887Z,1006.56
2022-09-24T00:16:46.867Z,1006.51
2022-09-24T00:17:46.838Z,1006.49
2022-09-24T00:18:46.801Z,1006.52
2022-09-24T00:19:46.839Z,1006.53
2022-09-24T00:20:46.795Z,1006.50
2022-09-24T00:21:46.788Z,1006.46
2022-09-24T00:22:46.788Z,1006.47
2022-09-24T00:23:46.786Z,1006.55
2022-09-24T00:24:46.769Z,1006.56
2022-09-24T00:25:46.727Z,1006.56
2022-09-24T00:26:46.715Z,1006.58
2022-09-24T00:27:46.716Z,1006.53
2022-09-24T00:28:46.709Z,1006.58
2022-09-24T00:29:46.748Z,1006.62
2022-09-24T00:30:46.677Z,1006.60
2022-09-24T00:31:46.736Z,1006.59
2022-09-24T00:33:56.156Z,1006.52
2022-09-24T00:34:56.166Z,1006.56
2022-09-24T00:35:56.118Z,1006.58
2022-09-24T00:36:56.132Z,1006.54
2022-09-24T00:37:56.128Z,1006.52
2022-09-24T00:38:56.107Z,1006.55
2022-09-24T00:39:56.077Z,1006.56
2022-09-24T00:40:56.078Z,1006.54
2022-09-24T00:41:56.088Z,1006.60
2022-09-24T00:42:56.048Z,1006.59
2022-09-24T00:43:56.041Z,1006.55
2022-09-24T00:44:56.063Z,1006.58
2022-09-24T00:45:56.009Z,1006.51
2022-09-24T00:46:56.128Z,1006.58
2022-09-24T00:47:56.008Z,1006.54
2022-09-24T00:48:56.017Z,1006.50
2022-09-24T00:49:55.957Z,1006.51
2022-09-24T00:50:55.965Z,1006.50
2022-09-24T00:51:55.987Z,1006.52
2022-09-24T00:52:55.974Z,1006.48
2022-09-24T00:53:55.918Z,1006.48
2022-09-24T00:54:55.938Z,1006.47
2022-09-24T00:55:55.898Z,1006.47
2022-09-24T00:56:55.898Z,1006.48
2022-09-24T00:57:55.926Z,1006.45
2022-09-24T00:58:55.887Z,1006.49
2022-09-24T00:59:55.858Z,1006.54
2022-09-24T01:00:55.911Z,1006.48
2022-09-24T01:01:55.920Z,1006.47
2022-09-24T01:02:55.839Z,1006.51
2022-09-24T01:03:55.868Z,1006.55
2022-09-24T01:04:56.741Z,1006.47
2022-09-24T01:05:55.798Z,1006.49
2022-09-24T01:06:55.823Z,1006.48
2022-09-24T01:07:55.766Z,1006.45
2022-09-24T01:08:55.767Z,1006.44
2022-09-24T01:09:55.787Z,1006.45
2022-09-24T01:10:55.829Z,1006.44
2022-09-24T01:11:55.760Z,1006.44
2022-09-24T01:12:55.783Z,1006.44
2022-09-24T01:13:55.707Z,1006.45
2022-09-24T01:14:55.834Z,1006.40
2022-09-24T01:15:55.806Z,1006.45
2022-09-24T01:16:55.677Z,1006.43
2022-09-24T01:17:55.658Z,1006.41
2022-09-24T01:18:55.689Z,1006.37
2022-09-24T01:19:55.700Z,1006.42
2022-09-24T01:20:55.637Z,1006.38
2022-09-24T01:21:55.617Z,1006.42
2022-09-24T01:22:55.607Z,1006.39
2022-09-24T01:23:55.617Z,1006.38
2022-09-24T01:24:55.600Z,1006.36
2022-09-24T01:25:55.595Z,1006.37
2022-09-24T01:26:55.576Z,1006.37
2022-09-24T01:27:55.550Z,1006.39
2022-09-24T01:28:55.537Z,1006.36
2022-09-24T01:29:55.576Z,1006.41
2022-09-24T01:30:55.518Z,1006.35
2022-09-24T01:31:55.655Z,1006.32
2022-09-24T01:32:55.510Z,1006.32
2022-09-24T01:33:55.478Z,1006.33
2022-09-24T01:34:55.479Z,1006.28
2022-09-24T01:35:55.524Z,1006.32
2022-09-24T01:36:55.449Z,1006.34
2022-09-24T01:37:55.451Z,1006.34
2022-09-24T01:38:55.447Z,1006.33
2022-09-24T01:39:55.417Z,1006.35
2022-09-24T01:40:55.515Z,1006.36
2022-09-24T01:41:55.407Z,1006.37
2022-09-24T01:42:55.409Z,1006.37
2022-09-24T01:43:55.375Z,1006.37
2022-09-24T01:44:55.363Z,1006.36
2022-09-24T01:45:55.356Z,1006.35
2022-09-24T01:46:55.407Z,1006.35
2022-09-24T01:47:55.399Z,1006.32
2022-09-24T01:48:55.326Z,1006.33
2022-09-24T01:49:55.307Z,1006.31
2022-09-24T01:50:55.301Z,1006.31
2022-09-24T01:51:55.366Z,1006.29
2022-09-24T01:52:55.315Z,1006.30
2022-09-24T01:53:55.277Z,1006.31
2022-09-24T01:54:55.286Z,1006.32
2022-09-24T01:55:55.259Z,1006.33
2022-09-24T01:56:55.242Z,1006.31
2022-09-24T01:57:55.228Z,1006.31
2022-09-24T01:58:55.267Z,1006.24
2022-09-24T01:59:55.226Z,1006.25
2022-09-24T02:00:55.246Z,1006.22
2022-09-24T02:01:55.297Z,1006.22
2022-09-24T02:02:55.167Z,1006.25
2022-09-24T02:03:55.147Z,1006.20
2022-09-24T02:04:55.146Z,1006.21
2022-09-24T02:05:55.127Z,1006.17
2022-09-24T02:06:55.137Z,1006.17
2022-09-24T02:07:55.149Z,1006.20
2022-09-24T02:08:55.127Z,1006.17
2022-09-24T02:09:55.141Z,1006.15
2022-09-24T02:10:55.099Z,1006.19
2022-09-24T02:11:55.168Z,1006.15
2022-09-24T02:12:55.066Z,1006.18
2022-09-24T02:13:55.047Z,1006.16
2022-09-24T02:14:55.039Z,1006.13
2022-09-24T02:15:55.077Z,1006.13
2022-09-24T02:16:55.026Z,1006.13
2022-09-24T02:17:55.046Z,1006.13
2022-09-24T02:18:55.046Z,1006.13
2022-09-24T02:19:54.992Z,1006.13
2022-09-24T02:20:54.978Z,1006.13
2022-09-24T02:21:54.971Z,1006.13
2022-09-24T02:22:54.959Z,1006.12
2022-09-24T02:23:55.006Z,1006.09
2022-09-24T02:24:55.056Z,1006.07
2022-09-24T02:25:54.917Z,1006.00
2022-09-24T02:26:54.906Z,1006.07
2022-09-24T02:27:54.896Z,1006.03
2022-09-24T02:28:54.887Z,1005.99
2022-09-24T02:29:54.877Z,1005.97
2022-09-24T02:30:54.923Z,1005.97
2022-09-24T02:31:54.998Z,1005.96
2022-09-24T02:32:54.839Z,1005.90
2022-09-24T02:33:54.967Z,1005.93
2022-09-24T02:34:54.835Z,1005.89
2022-09-24T02:35:54.816Z,1005.88
2022-09-24T02:36:54.796Z,1005.91
2022-09-24T02:37:54.793Z,1005.92
2022-09-24T02:38:54.817Z,1005.92
2022-09-24T02:39:54.806Z,1005.87
2022-09-24T02:40:54.847Z,1005.87
2022-09-24T02:41:54.756Z,1005.88
2022-09-24T02:42:54.736Z,1005.87
2022-09-24T02:43:54.750Z,1005.84
2022-09-24T02:44:54.724Z,1005.87
2022-09-24T02:45:54.706Z,1005.85
2022-09-24T02:46:54.733Z,1005.82
2022-09-24T02:47:54.735Z,1005.81
2022-09-24T02:48:54.667Z,1005.83
2022-09-24T02:49:54.687Z,1005.81
2022-09-24T02:50:54.646Z,1005.79
2022-09-24T02:51:54.626Z,1005.80
2022-09-24T02:52:54.627Z,1005.81
2022-09-24T02:53:54.658Z,1005.80
2022-09-24T02:54:54.605Z,1005.81
2022-09-24T02:55:54.588Z,1005.82
2022-09-24T02:56:54.618Z,1005.77
2022-09-24T02:57:54.577Z,1005.80
2022-09-24T02:58:54.564Z,1005.76
2022-09-24T02:59:54.582Z,1005.78
2022-09-24T03:00:54.538Z,1005.76
2022-09-24T03:01:54.619Z,1005.75
2022-09-24T03:02:54.630Z,1005.75
2022-09-24T03:03:54.526Z,1005.71
2022-09-24T03:04:54.525Z,1005.73
2022-09-24T03:05:54.477Z,1005.75
2022-09-24T03:06:54.462Z,1005.71
2022-09-24T03:07:54.516Z,1005.71
2022-09-24T03:08:54.449Z,1005.71
2022-09-24T03:09:54.475Z,1005.71
2022-09-24T03:10:54.426Z,1005.73
2022-09-24T03:11:54.415Z,1005.71
2022-09-24T03:12:54.409Z,1005.71
2022-09-24T03:13:54.406Z,1005.69
2022-09-24T03:14:54.408Z,1005.65
2022-09-24T03:15:54.487Z,1005.67
2022-09-24T03:16:54.374Z,1005.70
2022-09-24T03:17:54.364Z,1005.70
2022-09-24T03:18:54.337Z,1005.66
2022-09-24T03:19:54.328Z,1005.67
2022-09-24T03:20:54.435Z,1005.66
2022-09-24T03:21:54.307Z,1005.64
2022-09-24T03:22:54.346Z,1005.67
2022-09-24T03:23:54.285Z,1005.66
2022-09-24T03:24:54.304Z,1005.63
2022-09-24T03:25:54.265Z,1005.62
2022-09-24T03:26:54.268Z,1005.62
2022-09-24T03:27:54.245Z,1005.63
2022-09-24T03:28:54.246Z,1005.62
2022-09-24T03:29:54.216Z,1005.64
2022-09-24T03:30:54.220Z,1005.66
2022-09-24T03:31:54.266Z,1005.65
2022-09-24T03:32:54.215Z,1005.65
2022-09-24T03:33:54.264Z,1005.60
2022-09-24T03:34:54.167Z,1005.58
2022-09-24T03:35:54.154Z,1005.63
2022-09-24T03:36:54.146Z,1005.60
2022-09-24T03:37:54.208Z,1005.63
2022-09-24T03:38:54.126Z,1005.57
2022-09-24T03:39:54.155Z,1005.59
2022-09-24T03:40:54.160Z,1005.56
2022-09-24T03:41:54.095Z,1005.59
2022-09-24T03:42:54.076Z,1005.60
2022-09-24T03:43:54.075Z,1005.60
2022-09-24T03:44:54.101Z,1005.57
2022-09-24T03:45:54.316Z,1005.54
2022-09-24T03:46:54.085Z,1005.51
2022-09-24T03:47:54.103Z,1005.51
2022-09-24T03:48:54.028Z,1005.46
2022-09-24T03:49:54.006Z,1005.44
2022-09-24T03:50:53.986Z,1005.46
2022-09-24T03:51:53.978Z,1005.46
2022-09-24T03:52:53.968Z,1005.46
2022-09-24T03:53:53.976Z,1005.44
2022-09-24T03:54:53.944Z,1005.46
2022-09-24T03:55:53.974Z,1005.46
2022-09-24T03:56:53.915Z,1005.47
2022-09-24T03:57:53.905Z,1005.46
2022-09-24T03:58:53.925Z,1005.50
2022-09-24T03:59:53.916Z,1005.46
2022-09-24T04:00:53.899Z,1005.50
2022-09-24T04:01:53.892Z,1005.48
2022-09-24T04:02:53.919Z,1005.42
2022-09-24T04:03:53.998Z,1005.43
2022-09-24T04:04:53.832Z,1005.42
2022-09-24T04:05:53.899Z,1005.40
2022-09-24T04:06:53.846Z,1005.39
2022-09-24T04:07:53.803Z,1005.38
2022-09-24T04:08:53.785Z,1005.37
2022-09-24T04:09:53.835Z,1005.37
2022-09-24T04:10:53.811Z,1005.39
2022-09-24T04:11:53.779Z,1005.43
2022-09-24T04:12:53.744Z,1005.44
2022-09-24T04:13:53.735Z,1005.45
2022-09-24T04:14:53.725Z,1005.44
2022-09-24T04:15:53.937Z,1005.39
2022-09-24T04:16:53.747Z,1005.41
2022-09-24T04:17:53.693Z,1005.36
2022-09-24T04:18:53.681Z,1005.37
2022-09-24T04:19:53.766Z,1005.35
2022-09-24T04:20:53.665Z,1005.33
2022-09-24T04:21:53.655Z,1005.28
2022-09-24T04:22:53.634Z,1005.31
2022-09-24T04:23:53.631Z,1005.30
2022-09-24T04:24:53.618Z,1005.29
2022-09-24T04:25:53.763Z,1005.27
2022-09-24T04:26:53.627Z,1005.30
2022-09-24T04:27:53.585Z,1005.27
2022-09-24T04:28:53.564Z,1005.28
2022-09-24T04:29:53.575Z,1005.24
2022-09-24T04:30:53.597Z,1005.24
2022-09-24T04:31:53.610Z,1005.22
2022-09-24T04:32:53.806Z,1005.26
2022-09-24T04:33:53.526Z,1005.26
2022-09-24T04:34:53.504Z,1005.30
2022-09-24T04:35:53.642Z,1005.26
2022-09-24T04:36:53.485Z,1005.26
2022-09-24T04:37:53.559Z,1005.26
2022-09-24T04:38:53.465Z,1005.25
2022-09-24T04:39:53.456Z,1005.27
2022-09-24T04:40:53.530Z,1005.27
2022-09-24T04:41:53.433Z,1005.27
2022-09-24T04:42:53.428Z,1005.25
2022-09-24T04:43:53.443Z,1005.30
2022-09-24T04:44:56.119Z,1005.31
2022-09-24T04:45:53.396Z,1005.30
2022-09-24T04:46:53.405Z,1005.27
2022-09-24T04:47:53.365Z,1005.28
2022-09-24T04:48:53.394Z,1005.23
2022-09-24T04:49:53.346Z,1005.24
2022-09-24T04:50:53.436Z,1005.26
2022-09-24T04:51:53.337Z,1005.22
2022-09-24T04:52:53.302Z,1005.24
2022-09-24T04:53:53.302Z,1005.22
2022-09-24T04:54:53.297Z,1005.22
2022-09-24T04:55:53.295Z,1005.21
2022-09-24T04:56:53.295Z,1005.21
2022-09-24T04:57:53.255Z,1005.21
2022-09-24T04:58:53.279Z,1005.22
2022-09-24T04:59:53.234Z,1005.15
2022-09-24T05:00:54.835Z,1005.22
2022-09-24T05:01:53.438Z,1005.20
2022-09-24T05:02:53.385Z,1005.16
2022-09-24T05:03:53.194Z,1005.17
2022-09-24T05:04:53.185Z,1005.15
2022-09-24T05:05:53.174Z,1005.20
2022-09-24T05:06:53.192Z,1005.16
2022-09-24T05:07:53.157Z,1005.20
2022-09-24T05:08:53.186Z,1005.17
2022-09-24T05:09:53.151Z,1005.19
2022-09-24T05:10:53.125Z,1005.21
2022-09-24T05:11:53.114Z,1005.20
2022-09-24T05:12:53.166Z,1005.18
2022-09-24T05:13:53.086Z,1005.18
2022-09-24T05:14:53.085Z,1005.18
2022-09-24T05:15:53.136Z,1005.18
2022-09-24T05:16:53.078Z,1005.16
2022-09-24T05:17:53.046Z,1005.16
2022-09-24T05:18:53.055Z,1005.15
2022-09-24T05:19:53.034Z,1005.20
2022-09-24T05:20:53.005Z,1005.15
2022-09-24T05:21:53.001Z,1005.17
2022-09-24T05:22:52.984Z,1005.17
2022-09-24T05:23:53.034Z,1005.16
2022-09-24T05:24:52.974Z,1005.15
2022-09-24T05:25:52.954Z,1005.15
2022-09-24T05:26:52.933Z,1005.16
2022-09-24T05:27:52.955Z,1005.17
2022-09-24T05:28:52.944Z,1005.19
2022-09-24T05:29:52.905Z,1005.19
2022-09-24T05:30:52.948Z,1005.19
2022-09-24T05:31:53.055Z,1005.21
2022-09-24T05:32:52.903Z,1005.16
2022-09-24T05:33:52.954Z,1005.20
2022-09-24T05:34:52.852Z,1005.20
2022-09-24T05:35:52.855Z,1005.21
2022-09-24T05:36:52.837Z,1005.19
2022-09-24T05:37:52.874Z,1005.22
2022-09-24T05:38:52.803Z,1005.23
2022-09-24T05:39:52.833Z,1005.28
2022-09-24T05:40:52.872Z,1005.24
2022-09-24T05:41:52.779Z,1005.24
2022-09-24T05:42:52.774Z,1005.25
2022-09-24T05:43:52.756Z,1005.26
2022-09-24T05:44:52.736Z,1005.29
2022-09-24T05:45:52.765Z,1005.31
2022-09-24T05:46:52.801Z,1005.32
2022-09-24T05:47:52.788Z,1005.33
2022-09-24T05:48:52.734Z,1005.38
2022-09-24T05:49:52.685Z,1005.34
2022-09-24T05:50:52.704Z,1005.33
2022-09-24T05:51:52.702Z,1005.36
2022-09-24T05:52:52.655Z,1005.36
2022-09-24T05:53:52.684Z,1005.36
2022-09-24T05:54:52.625Z,1005.35
2022-09-24T05:55:52.629Z,1005.35
2022-09-24T05:56:52.639Z,1005.34
2022-09-24T05:57:52.603Z,1005.34
2022-09-24T05:58:52.614Z,1005.35
2022-09-24T05:59:52.584Z,1005.37
2022-09-24T06:00:52.563Z,1005.33
2022-09-24T06:01:52.638Z,1005.36
2022-09-24T06:02:52.596Z,1005.34
2022-09-24T06:03:52.543Z,1005.34
2022-09-24T06:04:52.604Z,1005.33
2022-09-24T06:05:52.524Z,1005.34
2022-09-24T06:06:52.504Z,1005.35
2022-09-24T06:07:52.498Z,1005.35
2022-09-24T06:08:52.474Z,1005.31
2022-09-24T06:09:52.474Z,1005.33
2022-09-24T06:10:52.504Z,1005.30
2022-09-24T06:11:52.456Z,1005.31
2022-09-24T06:12:52.442Z,1005.32
2022-09-24T06:13:52.454Z,1005.34
2022-09-24T06:14:52.434Z,1005.33
2022-09-24T06:15:52.494Z,1005.35
2022-09-24T06:16:52.404Z,1005.33
2022-09-24T06:17:52.383Z,1005.32
2022-09-24T06:18:52.373Z,1005.31
2022-09-24T06:19:52.587Z,1005.34
2022-09-24T06:20:52.353Z,1005.37
2022-09-24T06:21:52.352Z,1005.35
2022-09-24T06:22:52.336Z,1005.35
2022-09-24T06:23:55.954Z,1005.37
2022-09-24T06:24:52.307Z,1005.36
2022-09-24T06:25:52.461Z,1005.44
2022-09-24T06:26:52.306Z,1005.45
2022-09-24T06:27:52.296Z,1005.40
2022-09-24T06:28:52.264Z,1005.41
2022-09-24T06:29:52.315Z,1005.40
2022-09-24T06:30:52.315Z,1005.42
2022-09-24T06:31:52.254Z,1005.43
2022-09-24T06:32:59.232Z,1005.47
2022-09-24T06:33:52.232Z,1005.45
2022-09-24T06:34:55.570Z,1005.44
2022-09-24T06:35:53.189Z,1005.44
2022-09-24T06:36:52.180Z,1005.48
2022-09-24T06:37:52.202Z,1005.51
2022-09-24T06:38:52.151Z,1005.48
2022-09-24T06:39:52.191Z,1005.48
2022-09-24T06:40:52.255Z,1005.47
2022-09-24T06:41:52.122Z,1005.48
2022-09-24T06:42:52.121Z,1005.51
2022-09-24T06:43:52.123Z,1005.56
2022-09-24T06:44:52.129Z,1005.54
2022-09-24T06:45:52.121Z,1005.57
2022-09-24T06:46:52.160Z,1005.58
2022-09-24T06:47:52.065Z,1005.58
2022-09-24T06:48:52.058Z,1005.61
2022-09-24T06:49:52.038Z,1005.64
2022-09-24T06:50:52.103Z,1005.62
2022-09-24T06:51:52.011Z,1005.62
2022-09-24T06:52:51.992Z,1005.64
2022-09-24T06:53:51.992Z,1005.67
2022-09-24T06:54:51.981Z,1005.67
2022-09-24T06:55:52.082Z,1005.74
2022-09-24T06:56:54.059Z,1005.72
2022-09-24T06:57:51.980Z,1005.72
2022-09-24T06:58:51.968Z,1005.75
2022-09-24T06:59:51.960Z,1005.73
2022-09-24T07:00:51.938Z,1005.68
2022-09-24T07:01:51.957Z,1005.73
2022-09-24T07:02:51.893Z,1005.70
2022-09-24T07:03:51.920Z,1005.64
2022-09-24T07:04:51.959Z,1005.65
2022-09-24T07:05:51.872Z,1005.69
2022-09-24T07:06:51.843Z,1005.65
2022-09-24T07:07:51.972Z,1005.66
2022-09-24T07:08:51.850Z,1005.71
2022-09-24T07:09:51.828Z,1005.68
2022-09-24T07:10:51.802Z,1005.70
2022-09-24T07:11:51.800Z,1005.66
2022-09-24T07:12:51.793Z,1005.73
2022-09-24T07:13:51.891Z,1005.68
2022-09-24T07:14:51.774Z,1005.74
2022-09-24T07:15:52.083Z,1005.74
2022-09-24T07:16:51.770Z,1005.71
2022-09-24T07:17:51.791Z,1005.71
2022-09-24T07:18:51.748Z,1005.70
2022-09-24T07:19:51.770Z,1005.72
2022-09-24T07:20:51.709Z,1005.71
2022-09-24T07:21:51.681Z,1005.73
2022-09-24T07:22:51.685Z,1005.68
2022-09-24T07:23:56.365Z,1005.69
2022-09-24T07:24:52.848Z,1005.69
2022-09-24T07:25:51.661Z,1005.68
2022-09-24T07:26:51.641Z,1005.69
2022-09-24T07:27:51.621Z,1005.72
2022-09-24T07:28:51.620Z,1005.72
2022-09-24T07:29:51.602Z,1005.76
2022-09-24T07:30:51.641Z,1005.76
2022-09-24T07:31:51.591Z,1005.78
2022-09-24T07:32:51.571Z,1005.80
2022-09-24T07:33:51.553Z,1005.80
2022-09-24T07:34:51.640Z,1005.81
2022-09-24T07:35:51.531Z,1005.80
2022-09-24T07:36:51.525Z,1005.80
2022-09-24T07:37:51.516Z,1005.83
2022-09-24T07:38:51.508Z,1005.78
2022-09-24T07:39:51.497Z,1005.75
2022-09-24T07:40:51.570Z,1005.78
2022-09-24T07:41:51.461Z,1005.77
2022-09-24T07:42:51.463Z,1005.77
2022-09-24T07:43:51.450Z,1005.79
2022-09-24T07:44:51.449Z,1005.78
2022-09-24T07:45:51.428Z,1005.81
2022-09-24T07:46:51.633Z,1005.80
2022-09-24T07:47:51.443Z,1005.84
2022-09-24T07:48:51.400Z,1005.85
2022-09-24T07:49:51.421Z,1005.82
2022-09-24T07:50:51.371Z,1005.89
2022-09-24T07:51:51.391Z,1005.92
2022-09-24T07:52:51.391Z,1005.88
2022-09-24T07:53:51.332Z,1005.91
2022-09-24T07:54:51.351Z,1005.93
2022-09-24T07:55:51.311Z,1005.91
2022-09-24T07:56:51.344Z,1005.92
2022-09-24T07:57:51.292Z,1005.99
2022-09-24T07:58:51.292Z,1005.94
2022-09-24T07:59:51.320Z,1005.96
2022-09-24T08:00:51.262Z,1005.93
2022-09-24T08:01:51.291Z,1005.97
2022-09-24T08:02:51.322Z,1005.97
2022-09-24T08:03:51.250Z,1005.95
2022-09-24T08:04:51.241Z,1005.99
2022-09-24T08:05:51.201Z,1005.95
2022-09-24T08:06:51.199Z,1005.97
2022-09-24T08:07:51.211Z,1005.94
2022-09-24T08:08:51.191Z,1005.97
2022-09-24T08:09:51.193Z,1005.98
2022-09-24T08:10:51.152Z,1005.99
2022-09-24T08:11:51.150Z,1006.00
2022-09-24T08:12:51.143Z,1006.01
2022-09-24T08:13:51.154Z,1006.01
2022-09-24T08:14:51.111Z,1006.05
2022-09-24T08:15:51.171Z,1006.07
2022-09-24T08:16:51.100Z,1006.00
2022-09-24T08:17:51.071Z,1006.05
2022-09-24T08:18:51.078Z,1006.03
2022-09-24T08:19:51.082Z,1006.04
2022-09-24T08:20:51.078Z,1006.04
2022-09-24T08:21:51.041Z,1005.96
2022-09-24T08:22:51.031Z,1006.04
2022-09-24T08:23:51.013Z,1006.00
2022-09-24T08:24:51.008Z,1006.01
2022-09-24T08:25:51.031Z,1006.01
2022-09-24T08:26:50.981Z,1006.03
2022-09-24T08:27:51.000Z,1006.01
2022-09-24T08:28:50.989Z,1005.95
2022-09-24T08:29:50.942Z,1005.95
2022-09-24T08:30:51.010Z,1005.95
2022-09-24T08:31:50.961Z,1005.96
2022-09-24T08:32:50.918Z,1006.00
2022-09-24T08:33:50.941Z,1005.95
2022-09-24T08:34:52.694Z,1005.97
2022-09-24T08:35:50.882Z,1005.96
2022-09-24T08:36:50.874Z,1005.99
2022-09-24T08:37:50.902Z,1006.01
2022-09-24T08:38:50.851Z,1005.98
2022-09-24T08:39:50.871Z,1005.97
2022-09-24T08:40:50.986Z,1005.95
2022-09-24T08:41:50.823Z,1005.99
2022-09-24T08:42:50.804Z,1006.02
2022-09-24T08:43:50.791Z,1006.01
2022-09-24T08:44:50.782Z,1005.99
2022-09-24T08:45:50.821Z,1006.00
2022-09-24T08:46:50.822Z,1006.06
2022-09-24T08:47:50.811Z,1006.07
2022-09-24T08:48:50.741Z,1006.03
2022-09-24T08:49:50.730Z,1006.03
2022-09-24T08:50:50.791Z,1006.07
2022-09-24T08:51:50.710Z,1006.05
2022-09-24T08:52:50.729Z,1006.03
2022-09-24T08:53:50.682Z,1006.03
2022-09-24T08:54:50.681Z,1006.00
2022-09-24T08:55:50.661Z,1006.00
2022-09-24T08:56:50.690Z,1006.03
2022-09-24T08:57:50.641Z,1006.00
2022-09-24T08:58:50.634Z,1006.04
2022-09-24T08:59:50.659Z,1006.00
2022-09-24T09:00:50.655Z,1006.00
2022-09-24T09:01:50.760Z,1006.06
2022-09-24T09:02:50.869Z,1006.02
2022-09-24T09:03:50.570Z,1006.07
2022-09-24T09:04:50.571Z,1006.02
2022-09-24T09:05:50.579Z,1006.01
2022-09-24T09:06:50.591Z,1006.05
2022-09-24T09:07:50.539Z,1005.99
2022-09-24T09:09:06.390Z,1006.03
2022-09-24T09:09:51.501Z,1006.04
2022-09-24T09:10:50.510Z,1006.01
2022-09-24T09:11:50.490Z,1006.05
2022-09-24T09:12:50.801Z,1006.02
2022-09-24T09:13:50.468Z,1006.06
2022-09-24T09:14:50.477Z,1006.05
2022-09-24T09:15:50.516Z,1006.05
2022-09-24T09:16:50.449Z,1006.03
2022-09-24T09:17:55.591Z,1006.08
2022-09-24T09:18:50.421Z,1006.05
2022-09-24T09:19:53.746Z,1006.05
2022-09-24T09:20:50.400Z,1006.06
2022-09-24T09:21:50.383Z,1006.07
2022-09-24T09:22:50.432Z,1006.08
2022-09-24T09:23:50.361Z,1006.05
2022-09-24T09:24:50.360Z,1006.06
2022-09-24T09:25:50.444Z,1006.05
2022-09-24T09:26:50.352Z,1006.05
2022-09-24T09:27:50.352Z,1006.14
2022-09-24T09:28:50.374Z,1006.12
2022-09-24T09:29:50.306Z,1006.12
2022-09-24T09:30:50.352Z,1006.12
2022-09-24T09:31:56.012Z,1006.18
2022-09-24T09:32:51.337Z,1006.11
2022-09-24T09:33:50.250Z,1006.16
2022-09-24T09:34:50.251Z,1006.11
2022-09-24T09:35:50.237Z,1006.11
2022-09-24T09:36:50.271Z,1006.16
2022-09-24T09:38:02.532Z,1006.13
2022-09-24T09:38:50.203Z,1006.18
2022-09-24T09:39:50.212Z,1006.13
2022-09-24T09:40:50.226Z,1006.18
2022-09-24T09:41:50.192Z,1006.14
2022-09-24T09:42:50.210Z,1006.16
2022-09-24T09:43:50.182Z,1006.18
2022-09-24T09:44:50.133Z,1006.17
2022-09-24T09:45:50.121Z,1006.22
2022-09-24T09:46:50.201Z,1006.20
2022-09-24T09:47:50.111Z,1006.23
2022-09-24T09:48:50.122Z,1006.17
2022-09-24T09:49:50.082Z,1006.22
2022-09-24T09:50:50.075Z,1006.19
2022-09-24T09:51:50.090Z,1006.22
2022-09-24T09:52:50.061Z,1006.23
2022-09-24T09:53:50.092Z,1006.17
2022-09-24T09:54:50.029Z,1006.19
2022-09-24T09:55:50.012Z,1006.15
2022-09-24T09:56:50.027Z,1006.19
2022-09-24T09:57:49.985Z,1006.13
2022-09-24T09:58:50.000Z,1006.14
2022-09-24T09:59:49.980Z,1006.07
2022-09-24T10:00:50.062Z,1006.10
2022-09-24T10:01:50.027Z,1006.10
2022-09-24T10:02:50.169Z,1006.09
2022-09-24T10:03:49.934Z,1006.10
2022-09-24T10:04:52.082Z,1006.17
2022-09-24T10:05:49.950Z,1006.12
2022-09-24T10:06:49.900Z,1006.14
2022-09-24T10:07:49.872Z,1006.12
2022-09-24T10:08:49.883Z,1006.08
2022-09-24T10:09:49.861Z,1006.12
2022-09-24T10:10:49.860Z,1006.15
2022-09-24T10:11:49.861Z,1006.12
2022-09-24T10:12:49.840Z,1006.15
2022-09-24T10:13:50.799Z,1006.15
2022-09-24T10:14:49.957Z,1006.18
2022-09-24T10:15:49.841Z,1006.12
2022-09-24T10:16:49.802Z,1006.13
2022-09-24T10:17:49.763Z,1006.17
2022-09-24T10:18:49.761Z,1006.14
2022-09-24T10:19:49.751Z,1006.14
2022-09-24T10:20:49.822Z,1006.14
2022-09-24T10:21:49.751Z,1006.15
2022-09-24T10:22:49.740Z,1006.16
2022-09-24T10:23:49.702Z,1006.20
2022-09-24T10:24:50.703Z,1006.17
2022-09-24T10:25:49.682Z,1006.15
2022-09-24T10:26:49.711Z,1006.15
2022-09-24T10:27:49.663Z,1006.13
2022-09-24T10:28:49.652Z,1006.10
2022-09-24T10:29:49.655Z,1006.10
2022-09-24T10:30:49.678Z,1006.05
2022-09-24T10:31:49.701Z,1006.10
2022-09-24T10:32:49.620Z,1006.07
2022-09-24T10:33:49.631Z,1006.08
2022-09-24T10:34:49.591Z,1006.10
2022-09-24T10:35:49.573Z,1006.09
2022-09-24T10:36:49.571Z,1006.11
2022-09-24T10:37:49.586Z,1006.09
2022-09-24T10:38:49.576Z,1006.05
2022-09-24T10:39:49.532Z,1006.10
2022-09-24T10:40:49.612Z,1006.13
2022-09-24T10:41:49.531Z,1006.11
2022-09-24T10:42:49.511Z,1006.12
2022-09-24T10:43:49.543Z,1006.14
2022-09-24T10:44:52.856Z,1006.18
2022-09-24T10:45:49.471Z,1006.16
2022-09-24T10:46:49.587Z,1006.16
2022-09-24T10:47:49.452Z,1006.16
2022-09-24T10:48:49.439Z,1006.14
2022-09-24T10:49:49.421Z,1006.15
2022-09-24T10:50:49.441Z,1006.15
2022-09-24T10:51:49.412Z,1006.12
2022-09-24T10:52:49.403Z,1006.10
2022-09-24T10:53:53.421Z,1006.13
2022-09-24T10:54:49.362Z,1006.11
2022-09-24T10:55:49.348Z,1006.08
2022-09-24T10:56:49.340Z,1006.09
2022-09-24T10:57:49.323Z,1006.10
2022-09-24T10:58:49.383Z,1006.11
2022-09-24T10:59:49.331Z,1006.11
2022-09-24T11:00:49.300Z,1006.09
2022-09-24T11:01:49.345Z,1006.13
2022-09-24T11:02:49.410Z,1006.10
2022-09-24T11:03:49.261Z,1006.13
2022-09-24T11:04:49.402Z,1006.20
2022-09-24T11:05:49.245Z,1006.18
2022-09-24T11:06:49.249Z,1006.10
2022-09-24T11:07:49.242Z,1006.12
2022-09-24T11:08:49.262Z,1006.14
2022-09-24T11:09:49.243Z,1006.12
2022-09-24T11:10:49.204Z,1006.14
2022-09-24T11:11:49.212Z,1006.17
2022-09-24T11:12:49.185Z,1006.15
2022-09-24T11:13:51.477Z,1006.18
2022-09-24T11:14:49.192Z,1006.17
2022-09-24T11:15:49.160Z,1006.17
2022-09-24T11:16:49.134Z,1006.17
2022-09-24T11:17:49.282Z,1006.16
2022-09-24T11:18:49.112Z,1006.16
2022-09-24T11:19:49.150Z,1006.19
2022-09-24T11:20:49.094Z,1006.14
2022-09-24T11:21:51.242Z,1006.09
2022-09-24T11:22:49.139Z,1006.18
2022-09-24T11:23:49.048Z,1006.13
2022-09-24T11:24:49.040Z,1006.17
2022-09-24T11:25:49.033Z,1006.16
2022-09-24T11:26:49.024Z,1006.20
2022-09-24T11:27:49.004Z,1006.19
2022-09-24T11:28:49.192Z,1006.18
2022-09-24T11:29:48.991Z,1006.17
2022-09-24T11:30:49.048Z,1006.19
2022-09-24T11:31:49.090Z,1006.23
2022-09-24T11:32:48.976Z,1006.22
2022-09-24T11:33:48.943Z,1006.18
2022-09-24T11:34:48.995Z,1006.17
2022-09-24T11:35:48.944Z,1006.18
2022-09-24T11:36:48.903Z,1006.21
2022-09-24T11:37:48.903Z,1006.19
2022-09-24T11:38:48.933Z,1006.24
2022-09-24T11:39:48.883Z,1006.23
2022-09-24T11:40:48.937Z,1006.21
2022-09-24T11:41:48.884Z,1006.23
2022-09-24T11:42:48.853Z,1006.23
2022-09-24T11:43:48.843Z,1006.23
2022-09-24T11:44:48.853Z,1006.23
2022-09-24T11:45:48.803Z,1006.24
2022-09-24T11:46:48.905Z,1006.22
2022-09-24T11:47:48.793Z,1006.22
2022-09-24T11:48:48.782Z,1006.23
2022-09-24T11:49:48.805Z,1006.23
2022-09-24T11:50:48.783Z,1006.22
2022-09-24T11:51:48.743Z,1006.20
2022-09-24T11:52:48.743Z,1006.24
2022-09-24T11:53:48.748Z,1006.22
2022-09-24T11:54:48.754Z,1006.25
2022-09-24T11:55:48.703Z,1006.24
2022-09-24T11:56:48.693Z,1006.21
2022-09-24T11:57:48.694Z,1006.23
2022-09-24T11:58:48.676Z,1006.21
2022-09-24T11:59:48.673Z,1006.23
2022-09-24T12:00:48.784Z,1006.21
2022-09-24T12:01:48.683Z,1006.18
2022-09-24T12:02:48.697Z,1006.20
2022-09-24T12:03:48.651Z,1006.14
2022-09-24T12:04:48.592Z,1006.16
2022-09-24T12:05:48.603Z,1006.12
2022-09-24T12:06:48.574Z,1006.12